Time;durP1;ratioP1;P1;durP2;ratioP2;P2;SDS_P1;SDS_P2;PMS_P1;PMS_P2;Temp;Humidity;BMP_temperature;BMP_pressure;BME280_temperature;BME280_humidity;BME280_pressure;Samples;Min_cycle;Max_cycle;Signal;HPM_P1;HPM_P2
2022/12/29 00:00:07;;;;;;;4.20;2.20;;;;;;;0.82;87.01;147530.66;4803947;29;20079;-63
2022/12/29 00:02:33;;;;;;;5.93;2.83;;;;;;;0.80;86.62;147525.59;4804149;29;20318;-63
2022/12/29 00:05:00;;;;;;;5.72;2.58;;;;;;;0.92;86.04;147554.84;4804180;29;20303;-63
2022/12/29 00:07:27;;;;;;;4.32;2.55;;;;;;;0.81;85.99;147529.41;4803953;29;20064;-64
2022/12/29 00:09:53;;;;;;;4.72;2.67;;;;;;;0.80;86.53;147526.84;4816765;29;20101;-62
2022/12/29 00:12:19;;;;;;;3.78;2.45;;;;;;;0.80;86.47;147526.84;4815525;29;20033;-63
2022/12/29 00:17:29;;;;;;;4.85;2.92;;;;;;;0.77;86.15;147517.91;4834862;29;20087;-64
2022/12/29 00:36:33;;;;;;;5.10;3.10;;;;;;;0.56;88.75;147467.06;4834488;29;20210;-65
2022/12/29 00:44:38;;;;;;;4.75;3.33;;;;;;;0.58;89.11;147470.88;4832517;29;20306;-64
2022/12/29 00:47:04;;;;;;;6.18;2.92;;;;;;;0.52;88.60;147458.13;4834651;29;20067;-64
2022/12/29 00:49:30;;;;;;;5.55;3.10;;;;;;;0.59;88.48;147474.69;4834722;29;20320;-64
2022/12/29 00:52:04;;;;;;;6.55;3.03;;;;;;;0.49;87.88;147449.25;4835045;29;20043;-64
2022/12/29 00:54:33;;;;;;;3.67;2.72;;;;;;;0.74;87.87;147511.59;4816481;29;20057;-64
2022/12/29 00:56:59;;;;;;;4.10;2.75;;;;;;;0.65;87.02;147489.94;4831380;29;20038;-65
2022/12/29 00:59:25;;;;;;;5.20;2.35;;;;;;;0.59;86.48;147473.44;4834498;29;20356;-64
2022/12/29 01:01:52;;;;;;;4.40;2.17;;;;;;;0.49;85.20;147450.50;4833525;29;20046;-64
2022/12/29 01:04:18;;;;;;;2.80;1.92;;;;;;;0.62;84.01;147482.31;4834804;29;20034;-64
2022/12/29 01:06:43;;;;;;;4.55;2.10;;;;;;;0.67;84.60;147493.75;4834812;29;20038;-64
2022/12/29 01:11:55;;;;;;;2.35;1.67;;;;;;;0.63;83.41;147484.88;4834472;29;20037;-65
2022/12/29 01:14:21;;;;;;;3.65;1.70;;;;;;;0.77;83.93;147519.22;4834314;29;20030;-65
2022/12/29 01:16:47;;;;;;;6.13;2.08;;;;;;;0.66;82.91;147492.50;4834577;29;20038;-66
2022/12/29 01:19:13;;;;;;;5.32;1.75;;;;;;;0.65;82.96;147489.94;4834355;29;20037;-65
2022/12/29 01:21:39;;;;;;;4.10;1.98;;;;;;;0.45;83.14;147440.31;4829299;29;20043;-65
2022/12/29 01:24:05;;;;;;;4.55;1.75;;;;;;;0.57;83.70;147468.31;4816188;29;20047;-64
2022/12/29 01:26:30;;;;;;;4.00;1.90;;;;;;;0.49;83.29;147450.50;4827322;29;20039;-63
2022/12/29 01:28:56;;;;;;;6.35;1.90;;;;;;;0.41;83.74;147430.16;4834180;29;20075;-64
2022/12/29 01:31:22;;;;;;;3.00;1.95;;;;;;;0.51;83.99;147454.31;4817668;29;20398;-64
2022/12/29 01:33:47;;;;;;;5.82;2.28;;;;;;;0.42;83.47;147432.69;4834551;29;20297;-64
2022/12/29 01:36:15;;;;;;;3.08;1.70;;;;;;;0.32;83.61;147407.28;4834084;29;20341;-65
2022/12/29 01:38:41;;;;;;;4.40;2.05;;;;;;;0.58;83.60;147472.13;4834268;29;20038;-64
2022/12/29 01:41:09;;;;;;;4.25;1.83;;;;;;;0.44;82.96;147437.81;4833855;29;20031;-64
2022/12/29 01:43:48;;;;;;;5.57;2.15;;;;;;;0.27;82.42;147394.53;4834260;29;20031;-64
2022/12/29 01:46:23;;;;;;;3.03;1.45;;;;;;;0.07;80.44;147346.25;4834023;29;20034;-63
2022/12/29 01:48:53;;;;;;;3.90;1.48;;;;;;;0.01;81.73;147330.97;4834342;29;20026;-64
2022/12/29 01:51:21;;;;;;;5.93;1.88;;;;;;;0.10;81.16;147353.88;4834018;29;20035;-63
2022/12/29 01:53:47;;;;;;;3.60;1.25;;;;;;;0.14;81.64;147364.06;4834036;29;20101;-63
2022/12/29 01:56:17;;;;;;;4.03;1.50;;;;;;;0.22;81.93;147383.09;4834022;29;20054;-63
2022/12/29 01:58:46;;;;;;;2.10;1.33;;;;;;;0.11;81.89;147355.13;4834007;29;20037;-63
2022/12/29 02:01:12;;;;;;;5.20;1.88;;;;;;;0.25;81.54;147389.47;4833691;29;20034;-65
2022/12/29 02:03:38;;;;;;;4.90;1.65;;;;;;;0.22;80.70;147381.84;4833827;29;20038;-65
2022/12/29 02:06:12;;;;;;;3.90;1.42;;;;;;;0.10;80.81;147352.56;4834063;29;20034;-66
2022/12/29 03:46:57;;;;;;;8.07;3.03;;;;;;;-0.30;82.63;147253.44;5189776;24;20281;-65
2022/12/29 03:49:23;;;;;;;6.85;2.40;;;;;;;-0.29;82.68;147257.25;4785496;30;20035;-65
2022/12/29 03:51:48;;;;;;;8.88;2.85;;;;;;;-0.38;82.54;147235.63;4790009;30;20062;-66
2022/12/29 03:54:14;;;;;;;7.93;3.20;;;;;;;-0.67;83.98;147163.22;4781133;30;20047;-66
2022/12/29 03:56:39;;;;;;;7.78;3.15;;;;;;;-0.63;83.35;147173.34;4786592;30;20030;-66
2022/12/29 03:59:05;;;;;;;9.30;3.80;;;;;;;-0.53;84.21;147198.81;4781413;30;20036;-66
2022/12/29 04:01:31;;;;;;;6.22;3.00;;;;;;;-0.40;84.66;147229.28;4781191;30;20036;-66
2022/12/29 04:03:56;;;;;;;5.63;2.90;;;;;;;-0.33;84.11;147245.81;4789077;30;20213;-65
2022/12/29 04:06:22;;;;;;;9.70;3.20;;;;;;;-0.40;82.44;147229.28;4783255;29;20038;-66
2022/12/29 04:08:47;;;;;;;4.82;2.63;;;;;;;-0.70;82.70;147156.88;4781193;30;20103;-64
2022/12/29 04:11:13;;;;;;;6.38;2.92;;;;;;;-0.60;82.55;147179.72;4781083;30;20036;-65
2022/12/29 04:13:40;;;;;;;5.60;2.72;;;;;;;-0.63;83.08;147173.34;4792013;30;20098;-66
2022/12/29 04:16:06;;;;;;;4.32;2.70;;;;;;;-0.80;82.92;147130.16;4794922;30;20283;-64
2022/12/29 04:18:32;;;;;;;9.40;2.88;;;;;;;-0.71;83.36;147153.06;4781004;30;20047;-65
2022/12/29 04:21:00;;;;;;;6.68;2.80;;;;;;;-0.61;83.65;147177.22;4788558;30;20027;-65
2022/12/29 04:23:28;;;;;;;7.30;2.97;;;;;;;-0.58;82.52;147186.09;4788531;30;20035;-65
2022/12/29 04:25:53;;;;;;;4.85;2.67;;;;;;;-0.81;82.06;147127.63;4780939;30;20070;-65
2022/12/29 04:28:19;;;;;;;8.02;3.42;;;;;;;-0.72;82.07;147150.50;4780771;30;20031;-65
2022/12/29 04:30:45;;;;;;;7.57;2.88;;;;;;;-0.78;82.77;147135.28;4780840;30;20081;-65
2022/12/29 04:33:11;;;;;;;8.85;2.92;;;;;;;-0.82;82.54;147126.38;4780625;30;20349;-63
2022/12/29 04:35:37;;;;;;;6.90;3.17;;;;;;;-0.77;83.37;147137.78;4780896;30;20039;-64
2022/12/29 04:38:02;;;;;;;7.38;3.28;;;;;;;-0.62;83.20;147175.91;4780680;30;20101;-63
2022/12/29 04:40:28;;;;;;;7.57;2.80;;;;;;;-0.67;82.91;147163.22;4780566;30;20031;-65
2022/12/29 04:42:54;;;;;;;6.95;2.95;;;;;;;-0.59;83.02;147183.53;4780632;30;20094;-64
2022/12/29 04:45:20;;;;;;;6.60;2.70;;;;;;;-0.47;82.29;147212.78;4790406;29;20039;-64
2022/12/29 04:47:45;;;;;;;5.65;3.33;;;;;;;-0.51;82.55;147202.63;4783407;30;20054;-64
2022/12/29 04:50:11;;;;;;;8.15;3.20;;;;;;;-0.44;82.54;147219.09;4790294;30;20097;-64
2022/12/29 04:52:36;;;;;;;7.03;2.78;;;;;;;-0.52;82.25;147201.31;4778923;30;20076;-64
2022/12/29 04:55:03;;;;;;;7.30;2.90;;;;;;;-0.55;82.38;147192.44;4780556;30;20038;-64
2022/12/29 04:57:29;;;;;;;7.00;3.17;;;;;;;-0.61;82.28;147178.47;4780177;30;20043;-63
2022/12/29 04:59:55;;;;;;;7.63;3.22;;;;;;;-0.59;82.61;147183.53;4779996;30;20035;-65
2022/12/29 05:02:20;;;;;;;7.20;3.47;;;;;;;-0.68;82.60;147160.69;4779910;30;20038;-64
2022/12/29 05:04:46;;;;;;;7.30;3.72;;;;;;;-0.67;83.43;147161.94;4780454;30;20098;-64
2022/12/29 05:07:13;;;;;;;9.10;4.25;;;;;;;-0.68;82.92;147160.69;4780267;30;20035;-64
2022/12/29 05:09:38;;;;;;;7.75;3.30;;;;;;;-0.62;82.58;147174.66;4780227;30;20046;-64
2022/12/29 05:12:04;;;;;;;6.15;3.10;;;;;;;-0.78;82.76;147136.53;4780302;30;20031;-64
2022/12/29 05:14:30;;;;;;;5.25;3.00;;;;;;;-0.76;82.55;147141.59;4779887;30;20039;-64
2022/12/29 05:16:55;;;;;;;10.82;3.10;;;;;;;-0.73;83.58;147149.25;4779749;30;20035;-64
2022/12/29 05:19:21;;;;;;;7.22;3.25;;;;;;;-0.75;82.62;147142.91;4779942;30;20103;-64
2022/12/29 05:21:46;;;;;;;5.35;2.67;;;;;;;-0.95;84.01;147094.59;4788883;30;20027;-65
2022/12/29 05:24:12;;;;;;;5.00;2.67;;;;;;;-0.97;83.79;147088.25;4783557;29;20036;-65
2022/12/29 05:26:38;;;;;;;5.85;3.00;;;;;;;-0.82;83.04;147125.09;4780172;30;20108;-66
2022/12/29 05:29:03;;;;;;;4.55;2.90;;;;;;;-0.82;83.05;147126.38;4780074;30;20106;-65
2022/12/29 05:31:29;;;;;;;8.13;3.17;;;;;;;-0.73;83.30;147147.97;4779409;30;20043;-66
2022/12/29 05:33:54;;;;;;;7.63;3.03;;;;;;;-0.75;83.12;147144.16;4779882;30;20058;-65
2022/12/29 05:36:20;;;;;;;4.63;2.80;;;;;;;-0.91;83.07;147103.53;4779595;30;20354;-65
2022/12/29 05:38:46;;;;;;;7.82;3.08;;;;;;;-0.88;83.34;147111.13;4780018;30;20043;-66
2022/12/29 05:41:11;;;;;;;4.68;2.90;;;;;;;-0.88;83.26;147111.13;4779967;30;20031;-65
2022/12/29 05:43:37;;;;;;;6.20;2.92;;;;;;;-0.92;83.00;147100.97;4779665;30;20039;-66
2022/12/29 05:46:03;;;;;;;3.72;2.40;;;;;;;-0.86;82.57;147116.19;4779842;30;20342;-65
2022/12/29 05:48:29;;;;;;;5.80;2.90;;;;;;;-0.74;82.90;147146.69;4790575;30;20031;-65
2022/12/29 05:50:54;;;;;;;9.00;3.40;;;;;;;-0.77;82.49;147139.09;4786023;29;20072;-65
2022/12/29 05:53:20;;;;;;;6.43;3.60;;;;;;;-0.67;82.30;147163.22;4779806;30;20066;-65
2022/12/29 05:55:49;;;;;;;8.93;3.45;;;;;;;-0.68;82.29;147160.69;4780096;30;20039;-65
2022/12/29 05:58:17;;;;;;;7.53;3.70;;;;;;;-0.64;83.09;147169.56;4783328;30;20048;-65
2022/12/29 06:00:43;;;;;;;9.50;4.00;;;;;;;-0.65;83.21;147168.28;4783048;30;20027;-66
2022/12/29 06:03:09;;;;;;;9.20;4.25;;;;;;;-0.51;83.76;147202.63;4783641;30;20083;-65
2022/12/29 06:05:35;;;;;;;6.82;4.28;;;;;;;-0.52;81.80;147201.31;4783224;30;20039;-65
2022/12/29 06:08:00;;;;;;;8.15;4.82;;;;;;;-0.58;82.31;147186.09;4783242;30;20104;-66
2022/12/29 06:10:26;;;;;;;9.13;5.03;;;;;;;-0.56;82.42;147189.88;4781871;30;20032;-65
2022/12/29 06:12:51;;;;;;;13.43;5.30;;;;;;;-0.51;82.11;147202.63;4783388;30;20312;-66
2022/12/29 06:15:17;;;;;;;7.80;4.60;;;;;;;-0.48;82.55;147208.97;4782933;30;20031;-65
2022/12/29 06:17:43;;;;;;;10.32;5.45;;;;;;;-0.49;82.48;147207.69;4783162;30;20141;-65
2022/12/29 06:20:10;;;;;;;10.25;5.47;;;;;;;-0.45;83.09;147216.59;4782702;30;20046;-64
2022/12/29 06:22:36;;;;;;;10.00;5.68;;;;;;;-0.44;82.72;147220.41;4787755;30;20080;-65
2022/12/29 06:25:02;;;;;;;10.13;5.80;;;;;;;-0.46;81.87;147214.03;4783254;30;20035;-65
2022/12/29 06:27:28;;;;;;;12.25;5.72;;;;;;;-0.48;81.78;147208.97;4783111;30;20063;-65
2022/12/29 06:29:54;;;;;;;8.70;5.70;;;;;;;-0.63;82.69;147172.09;4782996;30;20047;-65
2022/12/29 06:35:06;;;;;;;13.80;6.70;;;;;;;-0.64;81.98;147170.84;4783765;30;20075;-66
2022/12/29 06:37:32;;;;;;;12.95;6.47;;;;;;;-0.66;81.81;147164.50;4790671;29;20118;-64
2022/12/29 06:39:58;;;;;;;12.20;6.78;;;;;;;-0.76;81.79;147140.34;4781437;30;20106;-65
2022/12/29 06:42:23;;;;;;;9.07;5.93;;;;;;;-0.62;81.52;147175.91;4782513;30;20265;-65
2022/12/29 06:44:49;;;;;;;13.07;7.45;;;;;;;-0.71;81.69;147153.06;4782691;30;20039;-63
2022/12/29 06:47:15;;;;;;;11.73;6.65;;;;;;;-0.58;81.72;147184.81;4797890;29;20063;-62
2022/12/29 06:49:40;;;;;;;14.15;7.13;;;;;;;-0.67;82.10;147161.94;4812311;29;20330;-64
2022/12/29 06:52:06;;;;;;;9.38;6.38;;;;;;;-0.76;81.83;147141.59;4781391;30;20032;-63
2022/12/29 06:54:32;;;;;;;12.05;6.40;;;;;;;-0.64;82.31;147169.56;4782444;30;20047;-63
2022/12/29 06:56:57;;;;;;;9.90;6.03;;;;;;;-0.58;81.51;147184.81;4782486;30;20081;-63
2022/12/29 06:59:24;;;;;;;8.25;5.95;;;;;;;-0.62;81.76;147175.91;4782019;30;20032;-64
2022/12/29 07:01:50;;;;;;;7.90;5.53;;;;;;;-0.56;81.53;147191.13;4781146;30;20272;-63
2022/12/29 07:04:16;;;;;;;6.97;5.32;;;;;;;-0.50;80.72;147205.13;4781203;30;20030;-64
2022/12/29 07:06:41;;;;;;;8.18;5.70;;;;;;;-0.71;81.86;147153.06;4782383;30;20035;-63
2022/12/29 07:09:08;;;;;;;8.43;5.10;;;;;;;-0.50;81.17;147203.88;4781430;30;20039;-63
2022/12/29 07:11:35;;;;;;;9.68;5.28;;;;;;;-0.44;81.60;147219.09;4782036;30;20028;-64
2022/12/29 07:14:01;;;;;;;9.65;5.80;;;;;;;-0.39;81.20;147231.81;4782533;30;20035;-63
2022/12/29 07:16:29;;;;;;;8.93;5.82;;;;;;;-0.36;80.12;147239.44;4795962;30;20038;-64
2022/12/29 07:18:55;;;;;;;7.47;5.32;;;;;;;-0.33;81.11;147245.81;4782385;30;20036;-63
2022/12/29 07:21:20;;;;;;;10.43;5.97;;;;;;;-0.39;80.21;147233.09;4781858;30;20353;-63
2022/12/29 07:23:47;;;;;;;8.65;6.10;;;;;;;-0.35;80.14;147243.25;4787465;30;20031;-62
2022/12/29 07:26:15;;;;;;;11.07;6.05;;;;;;;-0.36;80.51;147240.75;4782101;30;20085;-63
2022/12/29 07:28:41;;;;;;;17.55;9.02;;;;;;;-0.29;80.42;147257.25;4782071;30;20111;-63
2022/12/29 07:31:14;;;;;;;8.13;6.07;;;;;;;-0.30;80.38;147253.44;4781873;30;20042;-63
2022/12/29 07:33:40;;;;;;;9.77;6.30;;;;;;;-0.31;81.19;147250.88;4781917;30;20032;-62
2022/12/29 07:36:06;;;;;;;11.68;7.00;;;;;;;-0.20;80.52;147280.13;4781777;30;20078;-63
2022/12/29 07:38:31;;;;;;;11.63;7.03;;;;;;;-0.21;79.43;147276.34;4781749;30;20043;-62
2022/12/29 07:40:58;;;;;;;12.02;7.43;;;;;;;-0.21;80.14;147277.59;4795475;29;20032;-63
2022/12/29 07:43:23;;;;;;;11.38;7.28;;;;;;;-0.19;80.13;147282.66;4781447;30;20303;-62
2022/12/29 07:45:49;;;;;;;11.60;7.47;;;;;;;-0.24;80.28;147269.97;4781498;30;20031;-62
2022/12/29 07:48:14;;;;;;;11.82;7.85;;;;;;;-0.30;79.93;147254.72;4790166;30;20051;-62
2022/12/29 07:50:40;;;;;;;11.05;7.18;;;;;;;-0.25;80.34;147267.41;4790115;29;20338;-62
2022/12/29 07:53:06;;;;;;;15.85;8.73;;;;;;;-0.26;79.92;147263.59;4781631;30;20252;-62
2022/12/29 07:55:31;;;;;;;12.27;6.95;;;;;;;-0.20;80.31;147278.84;4781199;30;20074;-63
2022/12/29 07:57:57;;;;;;;14.15;8.13;;;;;;;-0.25;80.86;147267.41;4781463;30;20232;-63
2022/12/29 08:00:23;;;;;;;19.23;8.40;;;;;;;-0.25;80.54;147267.41;4781205;30;20028;-63
2022/12/29 08:02:49;;;;;;;12.00;7.88;;;;;;;-0.19;80.51;147282.66;4780892;30;20046;-62
2022/12/29 08:05:15;;;;;;;13.38;8.27;;;;;;;-0.30;80.29;147254.72;4781094;30;20350;-62
2022/12/29 08:07:43;;;;;;;15.02;9.38;;;;;;;-0.39;79.37;147233.09;4781158;30;20047;-63
2022/12/29 08:10:10;;;;;;;15.73;8.80;;;;;;;-0.41;79.80;147228.03;4781123;30;20200;-61
2022/12/29 08:12:38;;;;;;;11.15;8.68;;;;;;;-0.37;79.19;147236.88;4780927;30;20042;-62
2022/12/29 08:15:04;;;;;;;17.10;9.80;;;;;;;-0.21;79.98;147277.59;4781065;30;20065;-63
2022/12/29 08:17:30;;;;;;;14.88;9.07;;;;;;;-0.18;78.87;147285.19;4780963;30;20219;-63
2022/12/29 08:19:55;;;;;;;14.68;9.00;;;;;;;-0.24;79.33;147268.72;4780914;30;20046;-62
2022/12/29 08:22:23;;;;;;;14.93;9.77;;;;;;;-0.35;79.05;147242.00;4785077;30;20051;-63
2022/12/29 08:24:48;;;;;;;14.48;9.82;;;;;;;-0.40;79.55;147230.56;4782082;29;20150;-64
2022/12/29 08:27:14;;;;;;;16.48;9.20;;;;;;;-0.60;79.16;147181.03;4780994;30;20323;-62
2022/12/29 08:29:39;;;;;;;13.57;9.10;;;;;;;-0.50;80.08;147205.13;4780893;30;20283;-63
2022/12/29 08:32:06;;;;;;;12.70;7.85;;;;;;;-0.38;80.45;147235.63;4781036;30;20337;-62
2022/12/29 08:34:32;;;;;;;12.98;8.10;;;;;;;-0.30;79.92;147253.44;4780841;30;20038;-63
2022/12/29 08:36:57;;;;;;;12.10;6.55;;;;;;;-0.30;79.20;147253.44;4781047;30;20383;-64
2022/12/29 08:39:23;;;;;;;11.27;6.40;;;;;;;-0.48;78.73;147208.97;4780616;30;20032;-64
2022/12/29 08:41:49;;;;;;;13.25;7.10;;;;;;;-0.43;79.43;147221.66;4780731;30;20027;-63
2022/12/29 08:44:14;;;;;;;10.85;6.40;;;;;;;-0.48;79.55;147210.22;4780531;30;20035;-64
2022/12/29 08:46:40;;;;;;;13.57;8.13;;;;;;;-0.41;79.60;147226.78;4780084;30;20052;-63
2022/12/29 08:49:05;;;;;;;10.77;7.18;;;;;;;-0.40;79.41;147230.56;4796197;30;20039;-63
2022/12/29 08:51:31;;;;;;;14.68;8.10;;;;;;;-0.30;79.08;147254.72;4783378;29;20032;-63
2022/12/29 08:53:56;;;;;;;17.42;8.70;;;;;;;-0.26;79.76;147264.84;4780362;30;20096;-63
2022/12/29 08:56:23;;;;;;;11.90;8.00;;;;;;;-0.29;79.32;147257.25;4780252;30;20042;-63
2022/12/29 08:58:52;;;;;;;15.10;8.55;;;;;;;-0.39;79.70;147231.81;4780630;30;20048;-63
2022/12/29 09:01:18;;;;;;;16.23;8.95;;;;;;;-0.45;79.10;147216.59;4780892;30;20038;-63
2022/12/29 09:03:43;;;;;;;16.50;9.07;;;;;;;-0.27;79.47;147262.34;4780101;30;20043;-67
2022/12/29 09:06:09;;;;;;;20.13;9.85;;;;;;;-0.27;78.75;147262.34;4780443;30;20035;-63
2022/12/29 09:08:34;;;;;;;15.00;8.68;;;;;;;-0.33;78.68;147247.06;4780301;30;20035;-63
2022/12/29 09:11:33;;;;;;;17.33;9.05;;;;;;;-0.33;78.54;147247.06;4780492;30;20066;-64
2022/12/29 09:13:59;;;;;;;13.77;8.48;;;;;;;-0.12;78.47;147297.94;4778379;30;20039;-61
2022/12/29 09:16:25;;;;;;;12.80;8.35;;;;;;;-0.03;79.37;147320.78;4780444;30;20331;-63
2022/12/29 09:18:50;;;;;;;15.18;8.35;;;;;;;0.08;79.73;147347.50;4780406;30;20042;-62
2022/12/29 09:21:16;;;;;;;17.70;9.77;;;;;;;0.11;78.20;147355.13;4780346;30;20027;-61
2022/12/29 09:23:41;;;;;;;16.58;8.68;;;;;;;-0.06;77.96;147314.47;4786570;30;20031;-64
2022/12/29 09:26:08;;;;;;;19.35;8.50;;;;;;;-0.05;78.11;147315.72;4780270;30;20227;-63
2022/12/29 09:28:34;;;;;;;13.57;7.93;;;;;;;-0.10;78.50;147304.31;4780077;30;20047;-62
2022/12/29 09:31:00;;;;;;;16.05;8.65;;;;;;;-0.05;78.17;147316.97;4795686;30;20403;-63
2022/12/29 09:33:26;;;;;;;14.15;8.30;;;;;;;0.17;78.98;147371.69;4784208;29;20040;-62
2022/12/29 09:35:55;;;;;;;14.30;8.57;;;;;;;0.06;79.08;147343.69;4780067;30;20262;-63
2022/12/29 09:38:20;;;;;;;13.63;8.60;;;;;;;0.06;77.32;147343.69;4780100;30;20040;-62
2022/12/29 09:40:52;;;;;;;23.40;8.73;;;;;;;0.03;76.88;147336.06;4779997;30;20374;-61
2022/12/29 09:43:28;;;;;;;13.43;7.72;;;;;;;-0.24;76.94;147269.97;4780214;30;20075;-62
2022/12/29 09:46:19;;;;;;;13.93;8.18;;;;;;;-0.12;77.09;147297.94;4780014;30;20138;-62
2022/12/29 09:48:50;;;;;;;10.27;7.45;;;;;;;-0.24;77.67;147269.97;4792781;30;20039;-62
2022/12/29 09:51:37;;;;;;;11.95;7.68;;;;;;;-0.08;77.13;147308.09;4785365;29;20039;-62
2022/12/29 09:54:28;;;;;;;12.07;7.90;;;;;;;-0.20;77.47;147278.84;4779873;30;20059;-63
2022/12/29 09:56:55;;;;;;;12.90;7.60;;;;;;;-0.21;77.58;147277.59;4779821;30;20103;-62
2022/12/29 09:59:26;;;;;;;11.90;7.75;;;;;;;-0.20;77.95;147278.84;4779985;30;20046;-63
2022/12/29 10:02:38;;;;;;;14.15;7.53;;;;;;;0.00;78.53;147328.47;4779810;30;20312;-62
2022/12/29 10:05:18;;;;;;;11.63;7.15;;;;;;;-0.25;76.92;147266.16;4793753;30;20070;-62
2022/12/29 10:08:23;;;;;;;11.98;8.18;;;;;;;-0.07;78.07;147310.63;4779624;30;20077;-63
2022/12/29 10:10:53;;;;;;;12.18;8.05;;;;;;;-0.10;77.25;147303.00;4760753;30;20047;-63
2022/12/29 10:13:25;;;;;;;9.80;7.00;;;;;;;0.02;77.82;147333.53;4779933;30;20343;-62
2022/12/29 10:16:14;;;;;;;15.35;8.25;;;;;;;0.03;77.18;147334.78;4779891;30;20095;-62
2022/12/29 10:18:49;;;;;;;16.50;9.30;;;;;;;0.12;78.02;147357.69;4779541;30;20320;-62
2022/12/29 10:21:45;;;;;;;17.67;9.73;;;;;;;-0.23;77.28;147272.53;4779461;30;20036;-62
2022/12/29 10:24:12;;;;;;;14.13;10.13;;;;;;;-0.21;77.70;147277.59;4773362;30;20043;-62
2022/12/29 10:26:41;;;;;;;14.85;8.77;;;;;;;-0.11;77.96;147300.50;4779539;30;20067;-62
2022/12/29 10:29:23;;;;;;;17.73;9.73;;;;;;;-0.14;77.36;147292.81;4779543;30;20035;-63
2022/12/29 10:32:37;;;;;;;16.02;9.98;;;;;;;-0.04;78.88;147319.53;4779509;30;20124;-63
2022/12/29 10:35:29;;;;;;;17.75;10.27;;;;;;;-0.14;78.78;147292.81;4767765;30;20341;-62
2022/12/29 10:38:10;;;;;;;14.55;9.98;;;;;;;-0.11;77.52;147300.50;4779473;30;20038;-63
2022/12/29 10:40:58;;;;;;;15.40;10.70;;;;;;;-0.19;78.00;147282.66;4779442;30;20223;-62
2022/12/29 10:43:41;;;;;;;15.40;10.82;;;;;;;-0.16;77.72;147289.00;4764249;30;20051;-63
2022/12/29 10:46:15;;;;;;;21.80;12.13;;;;;;;-0.24;77.49;147269.97;4764907;30;20324;-62
2022/12/29 10:48:45;;;;;;;15.48;11.02;;;;;;;-0.16;77.44;147287.75;4785629;30;20052;-64
2022/12/29 10:51:18;;;;;;;16.02;10.90;;;;;;;-0.18;77.50;147285.19;4781565;29;20031;-64
2022/12/29 10:53:59;;;;;;;18.52;11.27;;;;;;;-0.23;77.38;147272.53;4782414;30;20099;-63
2022/12/29 10:56:25;;;;;;;18.02;11.90;;;;;;;-0.16;77.37;147287.75;4796237;30;20107;-63
2022/12/29 10:58:54;;;;;;;19.67;12.60;;;;;;;-0.21;77.93;147276.34;4782457;30;20058;-63
2022/12/29 11:01:20;;;;;;;16.10;12.27;;;;;;;-0.19;77.96;147282.66;4782771;30;20028;-64
2022/12/29 11:03:51;;;;;;;19.13;12.82;;;;;;;-0.26;77.72;147263.59;4782414;30;20074;-62
2022/12/29 11:06:26;;;;;;;22.52;13.43;;;;;;;-0.21;78.72;147276.34;4782482;30;20316;-62
2022/12/29 11:08:58;;;;;;;23.20;13.07;;;;;;;-0.09;77.98;147305.56;4781889;30;20045;-62
2022/12/29 11:11:27;;;;;;;20.45;13.15;;;;;;;-0.14;78.63;147294.13;4782187;30;20036;-63
2022/12/29 11:14:02;;;;;;;20.23;13.40;;;;;;;-0.07;77.81;147311.91;4782056;30;20323;-61
2022/12/29 11:16:31;;;;;;;18.88;12.68;;;;;;;-0.19;77.36;147281.41;4782129;30;20052;-62
2022/12/29 11:18:57;;;;;;;25.13;12.70;;;;;;;-0.06;77.57;147313.16;4782333;30;20446;-62
2022/12/29 11:21:40;;;;;;;18.30;12.30;;;;;;;-0.11;77.29;147300.50;4782302;30;20099;-63
2022/12/29 11:24:27;;;;;;;23.55;15.57;;;;;;;-0.11;78.25;147300.50;4789438;29;20052;-62
2022/12/29 11:27:14;;;;;;;20.23;13.68;;;;;;;-0.05;79.26;147315.72;4782103;30;20051;-62
2022/12/29 11:29:42;;;;;;;20.23;11.70;;;;;;;-0.22;78.36;147273.78;4781875;30;20035;-63
2022/12/29 11:32:23;;;;;;;21.23;12.85;;;;;;;-0.19;78.10;147281.41;4781894;30;20032;-62
2022/12/29 11:34:49;;;;;;;16.87;12.53;;;;;;;-0.15;78.81;147291.56;4781999;30;20039;-63
2022/12/29 11:37:25;;;;;;;18.58;13.10;;;;;;;-0.36;77.93;147239.44;4781901;30;20855;-63
2022/12/29 11:40:07;;;;;;;19.20;12.45;;;;;;;-0.43;78.05;147221.66;4780775;30;20051;-62
2022/12/29 11:42:40;;;;;;;22.58;13.48;;;;;;;-0.53;78.80;147198.81;4781724;30;20055;-64
2022/12/29 11:45:17;;;;;;;21.38;12.85;;;;;;;-0.47;78.77;147212.78;4781691;30;20050;-63
2022/12/29 11:47:47;;;;;;;20.15;12.75;;;;;;;-0.37;78.34;147238.19;4785479;30;20112;-63
2022/12/29 11:50:22;;;;;;;20.95;13.15;;;;;;;-0.39;78.84;147231.81;4795883;30;20319;-62
2022/12/29 11:52:50;;;;;;;19.38;13.82;;;;;;;-0.48;79.96;147210.22;4781524;30;20031;-63
2022/12/29 11:55:23;;;;;;;22.63;13.70;;;;;;;-0.60;79.19;147181.03;4780956;30;20047;-62
2022/12/29 11:57:52;;;;;;;27.23;12.95;;;;;;;-0.52;78.96;147201.31;4781187;30;20036;-63
2022/12/29 12:00:20;;;;;;;20.98;13.38;;;;;;;-0.55;78.68;147192.44;4781120;30;20052;-62
2022/12/29 12:03:08;;;;;;;19.58;12.40;;;;;;;-0.44;78.62;147219.09;4781223;30;20032;-62
2022/12/29 12:05:52;;;;;;;16.10;10.95;;;;;;;-0.45;78.40;147217.84;4781242;30;20095;-62
2022/12/29 12:08:43;;;;;;;16.55;12.05;;;;;;;-0.30;79.46;147254.72;4781310;30;20051;-63
2022/12/29 12:11:17;;;;;;;21.00;11.18;;;;;;;-0.19;79.55;147282.66;4781300;30;20035;-62
2022/12/29 12:14:00;;;;;;;17.58;11.45;;;;;;;-0.23;79.48;147272.53;4781353;30;20043;-63
2022/12/29 12:16:54;;;;;;;18.08;12.55;;;;;;;-0.30;79.82;147254.72;4763493;30;20032;-61
2022/12/29 12:19:44;;;;;;;15.55;12.57;;;;;;;-0.37;78.56;147236.88;4763298;30;20128;-63
2022/12/29 12:22:31;;;;;;;18.75;12.30;;;;;;;-0.31;79.58;147250.88;4780663;30;20027;-63
2022/12/29 12:25:20;;;;;;;21.25;12.80;;;;;;;-0.21;79.04;147277.59;4781010;30;20047;-63
2022/12/29 12:27:49;;;;;;;19.40;13.38;;;;;;;-0.28;79.75;147258.53;4781264;30;20046;-64
2022/12/29 12:30:18;;;;;;;17.25;13.43;;;;;;;-0.30;79.66;147254.72;4780984;30;20042;-64
2022/12/29 12:32:59;;;;;;;22.55;14.68;;;;;;;-0.22;79.84;147273.78;4781035;30;20733;-63
2022/12/29 12:35:43;;;;;;;23.90;14.45;;;;;;;-0.22;80.83;147273.78;4780758;30;20055;-62
2022/12/29 12:38:26;;;;;;;21.50;15.55;;;;;;;-0.30;80.22;147254.72;4780899;30;20051;-64
2022/12/29 12:41:11;;;;;;;25.10;14.75;;;;;;;-0.51;81.16;147202.63;4780720;30;20031;-63
2022/12/29 12:43:41;;;;;;;22.42;15.20;;;;;;;-0.72;80.89;147150.50;4780422;30;20354;-65
2022/12/29 12:46:09;;;;;;;18.05;14.18;;;;;;;-0.71;80.91;147154.31;4780201;30;20103;-63
2022/12/29 12:49:02;;;;;;;23.85;13.82;;;;;;;-0.68;81.49;147159.38;4791947;30;20329;-63
2022/12/29 12:52:06;;;;;;;20.95;13.45;;;;;;;-0.59;81.58;147183.53;4785495;29;20093;-64
2022/12/29 12:55:17;;;;;;;20.67;14.20;;;;;;;-0.38;82.32;147235.63;4780352;30;20356;-63
2022/12/29 12:57:54;;;;;;;22.67;13.83;;;;;;;-0.54;81.26;147195.00;4766822;30;20039;-63
2022/12/29 13:00:23;;;;;;;20.45;13.23;;;;;;;-0.43;81.53;147222.97;4780195;30;20070;-62
2022/12/29 13:02:54;;;;;;;18.48;13.23;;;;;;;-0.57;80.55;147188.63;4779058;30;20251;-63
2022/12/29 13:05:32;;;;;;;24.55;14.07;;;;;;;-0.61;81.70;147178.47;4793756;29;20032;-62
2022/12/29 13:08:23;;;;;;;21.38;13.63;;;;;;;-0.50;81.86;147205.13;4780468;30;20110;-63
2022/12/29 13:11:23;;;;;;;22.17;13.77;;;;;;;-0.37;82.14;147236.88;4780339;30;20079;-63
2022/12/29 13:14:38;;;;;;;27.40;15.20;;;;;;;-0.33;81.13;147247.06;4778830;30;20219;-64
2022/12/29 13:17:25;;;;;;;21.45;14.30;;;;;;;-0.33;80.42;147247.06;4725190;30;20036;-64
2022/12/29 13:20:12;;;;;;;17.75;12.30;;;;;;;-0.27;80.63;147262.34;4794133;30;20031;-63
2022/12/29 13:22:51;;;;;;;21.70;13.38;;;;;;;-0.35;80.44;147242.00;4787257;30;20315;-63
2022/12/29 13:25:30;;;;;;;19.55;13.00;;;;;;;-0.67;80.87;147163.22;4762219;30;20064;-63
2022/12/29 13:28:15;;;;;;;25.13;13.35;;;;;;;-0.76;82.05;147141.59;4777895;30;20112;-63
2022/12/29 13:31:01;;;;;;;22.67;13.35;;;;;;;-0.67;81.79;147161.94;4780180;30;20055;-64
2022/12/29 13:33:48;;;;;;;24.85;12.38;;;;;;;-0.74;81.40;147146.69;4779818;30;20063;-64
2022/12/29 13:36:37;;;;;;;22.23;12.55;;;;;;;-0.75;81.47;147144.16;4779251;30;20438;-63
2022/12/29 13:39:14;;;;;;;19.83;12.20;;;;;;;-0.97;82.30;147089.53;4779484;30;20047;-63
2022/12/29 13:41:55;;;;;;;18.15;12.35;;;;;;;-0.78;82.29;147135.28;4779153;30;20051;-63
2022/12/29 13:44:31;;;;;;;19.58;12.25;;;;;;;-0.78;81.59;147136.53;4765507;30;20039;-63